createdAt,value
2023-02-09T00:00:12.949Z,44.50
2023-02-09T00:02:46.572Z,42.40
2023-02-09T00:05:17.225Z,38.67
2023-02-09T00:07:46.348Z,42.73
2023-02-09T00:10:15.474Z,41.23
2023-02-09T00:13:02.153Z,37.80
2023-02-09T00:15:31.206Z,51.90
2023-02-09T00:18:00.269Z,45.57
2023-02-09T00:20:30.654Z,31.93
2023-02-09T00:22:59.703Z,37.37
2023-02-09T00:25:28.716Z,35.17
2023-02-09T00:27:57.785Z,32.43
2023-02-09T00:30:26.982Z,52.93
2023-02-09T00:32:56.054Z,32.63
2023-02-09T00:35:25.724Z,48.83
2023-02-09T00:37:57.287Z,37.43
2023-02-09T00:40:26.382Z,39.80
2023-02-09T00:42:55.723Z,44.57
2023-02-09T00:45:26.378Z,50.47
2023-02-09T00:47:56.430Z,43.27
2023-02-09T00:50:26.002Z,43.80
2023-02-09T00:52:56.418Z,38.87
2023-02-09T00:55:25.424Z,38.73
2023-02-09T00:57:54.573Z,31.53
2023-02-09T01:00:23.712Z,33.43
2023-02-09T01:02:52.845Z,46.80
2023-02-09T01:05:22.010Z,34.50
2023-02-09T01:07:51.127Z,50.73
2023-02-09T01:10:21.794Z,36.80
2023-02-09T01:12:52.169Z,33.80
2023-02-09T01:15:21.392Z,35.47
2023-02-09T01:17:50.424Z,35.97
2023-02-09T01:20:20.043Z,33.37
2023-02-09T01:22:49.099Z,43.77
2023-02-09T01:25:18.212Z,41.63
2023-02-09T01:27:48.709Z,51.23
2023-02-09T01:30:18.264Z,38.70
2023-02-09T01:32:47.373Z,36.13
2023-02-09T01:35:16.527Z,34.57
2023-02-09T01:37:45.558Z,40.33
2023-02-09T01:40:15.886Z,36.57
2023-02-09T01:42:45.001Z,39.60
2023-02-09T01:45:23.503Z,33.23
2023-02-09T01:47:58.120Z,41.93
2023-02-09T01:50:30.603Z,29.23
2023-02-09T01:53:00.004Z,42.73
2023-02-09T01:55:33.812Z,38.37
2023-02-09T01:58:08.255Z,33.43
2023-02-09T02:00:38.973Z,38.33
2023-02-09T02:03:10.584Z,47.20
2023-02-09T02:05:44.664Z,31.53
2023-02-09T02:08:20.236Z,35.97
2023-02-09T02:10:49.575Z,33.23
2023-02-09T02:13:20.696Z,34.73
2023-02-09T02:16:07.730Z,25.87
2023-02-09T02:18:55.906Z,27.87
2023-02-09T02:21:51.906Z,33.23
2023-02-09T02:24:55.928Z,27.13
2023-02-09T02:27:33.090Z,29.73
2023-02-09T02:30:35.981Z,34.53
2023-02-09T02:33:19.642Z,39.30
2023-02-09T02:35:55.058Z,30.87
2023-02-09T02:38:34.465Z,24.90
2023-02-09T02:41:13.149Z,44.90
2023-02-09T02:43:52.337Z,38.80
2023-02-09T02:46:27.449Z,32.40
2023-02-09T02:49:02.311Z,32.87
2023-02-09T02:51:34.948Z,31.50
2023-02-09T02:54:08.115Z,42.77
2023-02-09T02:56:41.347Z,32.10
2023-02-09T02:59:15.268Z,34.13
2023-02-09T03:01:49.143Z,21.13
2023-02-09T03:04:20.663Z,31.43
2023-02-09T03:06:49.679Z,43.67
2023-02-09T03:09:19.621Z,34.87
2023-02-09T03:11:56.150Z,27.57
2023-02-09T03:14:42.939Z,30.87
2023-02-09T03:17:25.056Z,30.83
2023-02-09T03:20:03.496Z,37.03
2023-02-09T03:22:37.890Z,39.20
2023-02-09T03:25:12.985Z,39.80
2023-02-09T03:27:46.306Z,29.67
2023-02-09T03:30:18.177Z,34.57
2023-02-09T03:32:49.308Z,40.13
2023-02-09T03:35:21.540Z,28.27
2023-02-09T03:37:50.622Z,33.70
2023-02-09T03:40:20.303Z,33.70
2023-02-09T03:42:50.019Z,31.73
2023-02-09T03:45:19.167Z,30.13
2023-02-09T03:47:48.500Z,41.03
2023-02-09T03:50:19.180Z,36.23
2023-02-09T03:52:48.325Z,38.97
2023-02-09T03:55:17.556Z,32.17
2023-02-09T03:57:49.902Z,41.83
2023-02-09T04:00:19.647Z,30.20
2023-02-09T04:02:49.202Z,32.03
2023-02-09T04:05:19.813Z,31.30
2023-02-09T04:07:48.984Z,35.63
2023-02-09T04:10:18.101Z,34.13
2023-02-09T04:12:48.160Z,31.17
2023-02-09T04:15:17.394Z,37.73
2023-02-09T04:17:46.413Z,36.53
2023-02-09T04:20:15.544Z,35.27
2023-02-09T04:22:46.044Z,43.77
2023-02-09T04:25:15.115Z,34.57
2023-02-09T04:27:44.312Z,44.63
2023-02-09T04:30:14.449Z,33.23
2023-02-09T04:32:43.532Z,38.93
2023-02-09T04:35:12.573Z,37.53
2023-02-09T04:37:41.625Z,23.93
2023-02-09T04:40:12.880Z,38.00
2023-02-09T04:42:41.929Z,37.73
2023-02-09T04:45:11.161Z,36.70
2023-02-09T04:47:40.337Z,24.90
2023-02-09T04:50:09.811Z,35.67
2023-02-09T04:52:38.808Z,36.73
2023-02-09T04:55:08.145Z,28.70
2023-02-09T04:57:55.946Z,26.43
2023-02-09T05:00:25.056Z,31.37
2023-02-09T05:02:55.098Z,29.27
2023-02-09T05:05:24.141Z,34.90
2023-02-09T05:07:53.299Z,31.43
2023-02-09T05:10:22.706Z,38.17
2023-02-09T05:12:53.843Z,29.90
2023-02-09T05:15:23.068Z,31.37
2023-02-09T05:17:52.208Z,27.57
2023-02-09T05:20:21.399Z,32.47
2023-02-09T05:22:50.443Z,33.67
2023-02-09T05:25:19.705Z,34.77
2023-02-09T05:27:49.064Z,26.17
2023-02-09T05:30:20.302Z,40.00
2023-02-09T05:32:50.143Z,32.50
2023-02-09T05:35:19.696Z,25.50
2023-02-09T05:37:48.739Z,33.07
2023-02-09T05:40:18.578Z,26.67
2023-02-09T05:42:47.713Z,28.80
2023-02-09T05:45:18.322Z,26.73
2023-02-09T05:47:47.539Z,21.70
2023-02-09T05:50:16.805Z,27.00
2023-02-09T05:52:46.152Z,30.03
2023-02-09T05:55:15.257Z,26.40
2023-02-09T05:57:44.277Z,25.63
2023-02-09T06:00:14.835Z,21.47
2023-02-09T06:02:45.291Z,28.70
2023-02-09T06:05:14.349Z,23.63
2023-02-09T06:07:43.414Z,21.77
2023-02-09T06:10:12.512Z,31.27
2023-02-09T06:12:41.554Z,25.20
2023-02-09T06:15:11.474Z,25.40
2023-02-09T06:17:40.578Z,24.67
2023-02-09T06:20:12.393Z,21.57
2023-02-09T06:22:41.463Z,22.17
2023-02-09T06:25:10.660Z,23.03
2023-02-09T06:27:39.782Z,19.90
2023-02-09T06:30:09.999Z,19.00
2023-02-09T06:32:39.135Z,22.77
2023-02-09T06:35:09.857Z,25.40
2023-02-09T06:37:39.000Z,24.77
2023-02-09T06:40:08.776Z,20.63
2023-02-09T06:42:46.720Z,22.63
2023-02-09T06:45:17.854Z,28.93
2023-02-09T06:47:47.720Z,19.00
2023-02-09T06:50:18.947Z,21.43
2023-02-09T06:52:48.625Z,17.07
2023-02-09T06:55:17.815Z,40.97
2023-02-09T06:57:46.975Z,20.33
2023-02-09T07:00:17.386Z,24.93
2023-02-09T07:02:46.528Z,18.63
2023-02-09T07:05:18.713Z,17.80
2023-02-09T07:07:47.908Z,22.87
2023-02-09T07:10:18.153Z,23.43
2023-02-09T07:12:47.314Z,25.90
2023-02-09T07:15:17.960Z,21.30
2023-02-09T07:17:47.024Z,18.20
2023-02-09T07:20:16.132Z,24.80
2023-02-09T07:22:46.570Z,18.90
2023-02-09T07:25:15.677Z,18.97
2023-02-09T07:27:46.049Z,21.20
2023-02-09T07:30:16.273Z,25.70
2023-02-09T07:32:46.179Z,19.33
2023-02-09T07:35:15.396Z,23.00
2023-02-09T07:37:45.878Z,17.80
2023-02-09T07:40:15.051Z,16.03
2023-02-09T07:42:44.088Z,22.20
2023-02-09T07:45:13.182Z,19.53
2023-02-09T07:47:42.216Z,16.87
2023-02-09T07:50:11.698Z,16.27
2023-02-09T07:52:40.767Z,13.00
2023-02-09T07:55:11.366Z,15.83
2023-02-09T07:57:40.395Z,17.67
2023-02-09T08:00:10.752Z,16.97
2023-02-09T08:02:46.188Z,12.20
2023-02-09T08:05:23.669Z,10.43
2023-02-09T08:07:52.754Z,12.23
2023-02-09T08:10:23.521Z,12.77
2023-02-09T08:13:02.573Z,11.87
2023-02-09T08:15:37.892Z,12.07
2023-02-09T08:18:12.971Z,21.50
2023-02-09T08:20:43.276Z,14.73
2023-02-09T08:23:18.534Z,13.90
2023-02-09T08:25:51.505Z,13.57
2023-02-09T08:28:21.730Z,13.07
2023-02-09T08:30:51.798Z,10.27
2023-02-09T08:33:20.850Z,14.50
2023-02-09T08:35:52.251Z,15.67
2023-02-09T08:38:21.489Z,12.23
2023-02-09T08:40:51.880Z,11.37
2023-02-09T08:43:20.897Z,18.53
2023-02-09T08:45:50.788Z,13.03
2023-02-09T08:48:20.061Z,13.67
2023-02-09T08:50:49.809Z,13.13
2023-02-09T08:53:18.854Z,12.33
2023-02-09T08:55:49.570Z,20.20
2023-02-09T08:58:19.994Z,12.03
2023-02-09T09:00:49.113Z,13.13
2023-02-09T09:03:18.190Z,14.63
2023-02-09T09:05:47.442Z,15.33
2023-02-09T09:08:16.668Z,12.13
2023-02-09T09:10:45.741Z,12.80
2023-02-09T09:13:14.867Z,10.60
2023-02-09T09:15:45.856Z,11.70
2023-02-09T09:18:15.403Z,11.97
2023-02-09T09:20:44.708Z,13.30
2023-02-09T09:23:14.191Z,12.80
2023-02-09T09:25:44.642Z,15.20
2023-02-09T09:28:14.139Z,13.37
2023-02-09T09:30:44.652Z,13.30
2023-02-09T09:33:13.758Z,13.23
2023-02-09T09:35:42.976Z,10.93
2023-02-09T09:38:12.029Z,10.80
2023-02-09T09:40:42.775Z,11.23
2023-02-09T09:43:23.851Z,10.70
2023-02-09T09:45:54.349Z,14.73
2023-02-09T09:48:25.769Z,17.00
2023-02-09T09:50:57.908Z,13.43
2023-02-09T09:53:33.280Z,11.20
2023-02-09T09:56:06.432Z,16.73
2023-02-09T09:58:40.246Z,12.73
2023-02-09T10:01:15.120Z,14.23
2023-02-09T10:03:44.914Z,13.87
2023-02-09T10:06:17.659Z,11.17
2023-02-09T10:08:53.660Z,14.33
2023-02-09T10:11:27.003Z,12.20
2023-02-09T10:13:57.778Z,10.73
2023-02-09T10:16:30.375Z,9.63
2023-02-09T10:19:02.182Z,14.40
2023-02-09T10:21:34.064Z,10.77
2023-02-09T10:24:13.624Z,12.30
2023-02-09T10:26:43.548Z,10.93
2023-02-09T10:29:25.370Z,10.53
2023-02-09T10:32:04.192Z,10.73
2023-02-09T10:34:42.423Z,12.50
2023-02-09T10:37:19.258Z,10.57
2023-02-09T10:39:55.561Z,11.93
2023-02-09T10:42:29.430Z,13.67
2023-02-09T10:45:06.785Z,15.53
2023-02-09T10:47:37.235Z,12.27
2023-02-09T10:50:19.573Z,10.37
2023-02-09T10:53:01.090Z,12.70
2023-02-09T10:55:36.224Z,12.70
2023-02-09T10:58:11.636Z,12.90
2023-02-09T11:00:49.808Z,10.83
2023-02-09T11:03:22.748Z,15.50
2023-02-09T11:06:01.375Z,11.67
2023-02-09T11:08:42.751Z,13.73
2023-02-09T11:11:22.941Z,16.13
2023-02-09T11:13:52.174Z,12.43
2023-02-09T11:16:45.336Z,9.33
2023-02-09T11:19:31.316Z,12.73
2023-02-09T11:22:08.773Z,11.87
2023-02-09T11:24:52.194Z,10.97
2023-02-09T11:27:32.126Z,12.00
2023-02-09T11:30:16.415Z,13.67
2023-02-09T11:32:52.764Z,10.23
2023-02-09T11:35:27.756Z,12.20
2023-02-09T11:38:01.981Z,12.83
2023-02-09T11:40:37.365Z,12.70
2023-02-09T11:43:15.900Z,12.83
2023-02-09T11:45:47.199Z,11.87
2023-02-09T11:48:24.928Z,9.80
2023-02-09T11:51:08.269Z,14.90
2023-02-09T11:53:43.668Z,10.23
2023-02-09T11:56:14.768Z,10.40
2023-02-09T11:58:53.324Z,13.03
2023-02-09T12:01:36.651Z,11.33
2023-02-09T12:04:14.941Z,10.77
2023-02-09T12:06:50.734Z,15.20
2023-02-09T12:09:36.718Z,12.67
2023-02-09T12:12:14.387Z,15.10
2023-02-09T12:15:13.636Z,10.57
2023-02-09T12:17:49.060Z,9.83
2023-02-09T12:20:31.106Z,9.87
2023-02-09T12:23:05.635Z,9.17
2023-02-09T12:25:54.605Z,10.33
2023-02-09T12:28:46.549Z,12.57
2023-02-09T12:31:25.692Z,12.93
2023-02-09T12:34:12.393Z,10.10
2023-02-09T12:37:16.940Z,10.10
2023-02-09T12:40:20.070Z,15.00
2023-02-09T12:43:15.317Z,13.57
2023-02-09T12:45:45.920Z,11.63
2023-02-09T12:48:19.307Z,12.87
2023-02-09T12:50:54.688Z,15.23
2023-02-09T12:53:50.435Z,10.43
2023-02-09T12:56:31.659Z,10.03
2023-02-09T12:59:32.393Z,14.03
2023-02-09T13:02:25.917Z,9.30
2023-02-09T13:05:03.225Z,16.03
2023-02-09T13:07:49.054Z,11.93
2023-02-09T13:10:26.507Z,13.67
2023-02-09T13:12:59.556Z,13.67
2023-02-09T13:15:46.670Z,10.90
2023-02-09T13:18:21.149Z,13.50
2023-02-09T13:21:13.969Z,13.13
2023-02-09T13:23:54.632Z,10.97
2023-02-09T13:26:26.648Z,11.47
2023-02-09T13:29:19.772Z,11.93
2023-02-09T13:32:01.821Z,12.73
2023-02-09T13:34:39.005Z,13.10
2023-02-09T13:37:18.764Z,16.53
2023-02-09T13:39:57.322Z,11.07
2023-02-09T13:42:29.558Z,22.03
2023-02-09T13:45:00.071Z,10.63
2023-02-09T13:47:30.569Z,12.60
2023-02-09T13:50:01.813Z,15.10
2023-02-09T13:52:39.109Z,15.90
2023-02-09T13:55:19.355Z,9.87
2023-02-09T13:57:55.525Z,14.67
2023-02-09T14:00:27.884Z,17.77
2023-02-09T14:03:01.416Z,14.00
2023-02-09T14:05:39.435Z,11.57
2023-02-09T14:08:10.280Z,7.03
2023-02-09T14:10:42.179Z,10.30
2023-02-09T14:13:19.919Z,15.47
2023-02-09T14:16:06.937Z,18.33
2023-02-09T14:18:47.697Z,17.77
2023-02-09T14:21:24.237Z,16.80
2023-02-09T14:24:17.703Z,14.37
2023-02-09T14:26:55.961Z,14.77
2023-02-09T14:29:28.737Z,12.23
2023-02-09T14:31:59.612Z,13.03
2023-02-09T14:34:38.592Z,14.27
2023-02-09T14:37:30.297Z,11.10
2023-02-09T14:40:05.895Z,10.73
2023-02-09T14:42:39.336Z,11.00
2023-02-09T14:45:36.476Z,13.23
2023-02-09T14:48:17.805Z,17.77
2023-02-09T14:50:48.889Z,14.03
2023-02-09T14:53:19.114Z,11.47
2023-02-09T14:55:48.608Z,15.33
2023-02-09T14:58:23.321Z,12.67
2023-02-09T15:00:54.554Z,12.00
2023-02-09T15:03:24.108Z,14.87
2023-02-09T15:05:59.418Z,12.43
2023-02-09T15:08:32.366Z,7.87
2023-02-09T15:11:26.390Z,16.50
2023-02-09T15:13:59.531Z,14.37
2023-02-09T15:16:28.658Z,18.67
2023-02-09T15:18:57.810Z,15.60
2023-02-09T15:21:28.256Z,13.17
2023-02-09T15:23:57.308Z,14.30
2023-02-09T15:26:27.695Z,14.30
2023-02-09T15:28:56.745Z,12.77
2023-02-09T15:31:25.842Z,12.73
2023-02-09T15:33:55.388Z,11.77
2023-02-09T15:36:25.741Z,14.57
2023-02-09T15:38:56.680Z,12.83
2023-02-09T15:41:44.703Z,17.47
2023-02-09T15:44:35.503Z,11.17
2023-02-09T15:47:22.752Z,11.57
2023-02-09T15:49:51.835Z,12.97
2023-02-09T15:52:21.269Z,11.93
2023-02-09T15:54:53.761Z,20.63
2023-02-09T15:57:25.137Z,15.00
2023-02-09T15:59:54.301Z,14.53
2023-02-09T16:02:23.587Z,19.73
2023-02-09T16:04:52.938Z,13.60
2023-02-09T16:07:40.127Z,14.27
2023-02-09T16:10:16.711Z,15.47
2023-02-09T16:12:46.192Z,15.90
2023-02-09T16:15:17.511Z,16.47
2023-02-09T16:17:46.596Z,20.73
2023-02-09T16:20:16.297Z,16.23
2023-02-09T16:22:47.949Z,14.57
2023-02-09T16:25:23.931Z,15.93
2023-02-09T16:27:54.425Z,12.27
2023-02-09T16:30:26.642Z,12.63
2023-02-09T16:32:56.751Z,14.53
2023-02-09T16:35:26.320Z,14.63
2023-02-09T16:37:56.238Z,13.97
2023-02-09T16:40:29.306Z,14.33
2023-02-09T16:43:00.213Z,13.27
2023-02-09T16:45:31.493Z,13.07
2023-02-09T16:48:00.598Z,14.00
2023-02-09T16:50:33.360Z,15.60
2023-02-09T16:53:05.426Z,16.87
2023-02-09T16:55:36.999Z,13.37
2023-02-09T16:58:07.025Z,16.80
2023-02-09T17:00:38.867Z,17.43
2023-02-09T17:03:15.378Z,16.87
2023-02-09T17:05:48.470Z,15.40
2023-02-09T17:08:20.510Z,16.40
2023-02-09T17:10:52.545Z,18.17
2023-02-09T17:13:21.766Z,17.00
2023-02-09T17:15:53.590Z,19.50
2023-02-09T17:18:25.732Z,14.23
2023-02-09T17:20:56.920Z,15.50
2023-02-09T17:23:28.347Z,14.07
2023-02-09T17:25:59.290Z,16.50
2023-02-09T17:28:30.765Z,12.10
2023-02-09T17:31:01.832Z,16.63
2023-02-09T17:33:33.035Z,12.70
2023-02-09T17:38:52.758Z,24.07
2023-02-09T17:41:29.308Z,15.83
2023-02-09T17:44:17.569Z,20.63
2023-02-09T17:46:50.057Z,16.03
2023-02-09T17:49:19.186Z,15.77
2023-02-09T17:51:49.652Z,14.50
2023-02-09T17:54:20.781Z,21.93
2023-02-09T17:56:51.207Z,21.13
2023-02-09T17:59:21.227Z,14.67
2023-02-09T18:01:50.994Z,13.93
2023-02-09T18:04:22.789Z,15.63
2023-02-09T18:06:51.930Z,15.27
2023-02-09T18:09:21.088Z,16.73
2023-02-09T18:12:02.972Z,21.87
2023-02-09T18:14:34.444Z,21.13
2023-02-09T18:17:03.659Z,21.47
2023-02-09T18:19:33.059Z,21.17
2023-02-09T18:22:03.141Z,16.03
2023-02-09T18:24:34.214Z,13.33
2023-02-09T18:27:05.057Z,18.40
2023-02-09T18:29:34.176Z,24.67
2023-02-09T18:32:04.040Z,13.00
2023-02-09T18:34:37.846Z,20.30
2023-02-09T18:37:17.677Z,27.30
2023-02-09T18:39:52.228Z,20.50
2023-02-09T18:42:23.000Z,15.60
2023-02-09T18:44:52.053Z,20.43
2023-02-09T18:47:23.808Z,27.07
2023-02-09T18:49:56.015Z,26.00
2023-02-09T18:52:27.040Z,21.60
2023-02-09T18:54:57.040Z,18.87
2023-02-09T18:57:37.561Z,17.23
2023-02-09T19:00:10.350Z,18.43
2023-02-09T19:02:45.447Z,24.87
2023-02-09T19:05:19.765Z,21.17
2023-02-09T19:07:49.730Z,16.30
2023-02-09T19:10:23.535Z,21.53
2023-02-09T19:12:59.507Z,17.10
2023-02-09T19:15:40.048Z,20.00
2023-02-09T19:18:15.005Z,23.80
2023-02-09T19:20:50.099Z,16.17
2023-02-09T19:23:23.311Z,20.20
2023-02-09T19:26:01.688Z,18.60
2023-02-09T19:28:37.642Z,19.53
2023-02-09T19:31:17.192Z,26.33
2023-02-09T19:33:49.223Z,25.27
2023-02-09T19:36:18.390Z,24.07
2023-02-09T19:38:48.189Z,25.97
2023-02-09T19:41:17.404Z,28.07
2023-02-09T19:43:47.895Z,21.17
2023-02-09T19:46:18.110Z,15.50
2023-02-09T19:48:47.355Z,17.90
2023-02-09T19:51:16.670Z,25.03
2023-02-09T19:53:46.157Z,22.47
2023-02-09T19:56:17.273Z,22.77
2023-02-09T19:58:47.926Z,24.67
2023-02-09T20:01:23.540Z,17.10
2023-02-09T20:03:53.657Z,21.17
2023-02-09T20:06:23.535Z,24.63
2023-02-09T20:08:52.766Z,21.50
2023-02-09T20:11:24.753Z,24.30
2023-02-09T20:13:57.010Z,29.57
2023-02-09T20:16:29.166Z,22.67
2023-02-09T20:18:58.898Z,23.00
2023-02-09T20:21:28.665Z,23.27
2023-02-09T20:24:02.051Z,22.07
2023-02-09T20:26:32.995Z,26.37
2023-02-09T20:29:05.722Z,29.60
2023-02-09T20:31:38.404Z,23.07
2023-02-09T20:34:10.481Z,27.33
2023-02-09T20:36:44.860Z,22.60
2023-02-09T20:39:16.056Z,27.57
2023-02-09T20:42:37.672Z,24.70
2023-02-09T20:45:31.532Z,26.37
2023-02-09T20:48:01.247Z,19.57
2023-02-09T20:50:36.188Z,22.00
2023-02-09T20:53:07.341Z,34.23
2023-02-09T20:55:37.841Z,19.27
2023-02-09T20:58:07.336Z,23.10
2023-02-09T21:00:40.899Z,26.77
2023-02-09T21:03:11.674Z,24.70
2023-02-09T21:05:42.681Z,31.00
2023-02-09T21:08:18.343Z,26.80
2023-02-09T21:10:48.514Z,26.57
2023-02-09T21:13:20.711Z,23.20
2023-02-09T21:15:52.150Z,24.33
2023-02-09T21:18:21.923Z,26.23
2023-02-09T21:20:51.213Z,24.03
2023-02-09T21:23:21.170Z,20.70
2023-02-09T21:25:50.384Z,26.87
2023-02-09T21:28:19.498Z,24.47
2023-02-09T21:30:50.233Z,28.50
2023-02-09T21:33:19.353Z,24.60
2023-02-09T21:35:48.457Z,21.77
2023-02-09T21:38:17.829Z,20.37
2023-02-09T21:40:47.192Z,25.73
2023-02-09T21:43:16.526Z,25.97
2023-02-09T21:45:45.669Z,21.70
2023-02-09T21:48:16.201Z,24.73
2023-02-09T21:50:45.339Z,23.20
2023-02-09T21:53:14.418Z,23.70
2023-02-09T21:55:43.461Z,24.53
2023-02-09T21:58:12.482Z,21.23
2023-02-09T22:00:41.570Z,24.80
2023-02-09T22:03:11.345Z,27.67
2023-02-09T22:05:42.445Z,27.63
2023-02-09T22:08:12.007Z,29.97
2023-02-09T22:10:41.196Z,27.00
2023-02-09T22:13:10.247Z,29.53
2023-02-09T22:15:42.060Z,26.53
2023-02-09T22:18:11.947Z,31.87
2023-02-09T22:20:43.481Z,33.93
2023-02-09T22:23:12.586Z,32.93
2023-02-09T22:25:41.748Z,34.93
2023-02-09T22:28:10.909Z,29.27
2023-02-09T22:30:40.211Z,26.33
2023-02-09T22:33:09.301Z,26.37
2023-02-09T22:35:42.935Z,33.83
2023-02-09T22:38:11.951Z,29.67
2023-02-09T22:40:40.934Z,29.00
2023-02-09T22:43:09.960Z,22.80
2023-02-09T22:45:39.003Z,21.73
2023-02-09T22:48:08.025Z,30.50
2023-02-09T22:50:38.422Z,29.07
2023-02-09T22:53:09.001Z,36.70
2023-02-09T22:55:38.100Z,31.83
2023-02-09T22:58:07.225Z,28.53
2023-02-09T23:00:36.292Z,24.93
2023-02-09T23:03:05.347Z,22.33
2023-02-09T23:05:35.192Z,29.30
2023-02-09T23:08:04.302Z,29.60
2023-02-09T23:10:34.702Z,27.70
2023-02-09T23:13:03.692Z,31.17
2023-02-09T23:15:32.829Z,33.07
2023-02-09T23:18:02.036Z,26.80
2023-02-09T23:20:31.083Z,38.20
2023-02-09T23:23:05.409Z,34.93
2023-02-09T23:25:35.815Z,30.83
2023-02-09T23:28:04.918Z,28.57
2023-02-09T23:30:35.134Z,30.90
2023-02-09T23:33:04.173Z,26.03
2023-02-09T23:35:33.203Z,28.60
2023-02-09T23:38:02.215Z,31.60
2023-02-09T23:40:31.290Z,32.63
2023-02-09T23:43:01.721Z,25.33
2023-02-09T23:45:30.782Z,25.83
2023-02-09T23:47:59.842Z,31.43
2023-02-09T23:50:28.953Z,30.90
2023-02-09T23:52:58.038Z,30.73
2023-02-09T23:55:27.028Z,37.80
2023-02-09T23:57:56.045Z,25.50
